Time;durP1;ratioP1;P1;durP2;ratioP2;P2;SDS_P1;SDS_P2;PMS_P1;PMS_P2;Temp;Humidity;BMP_temperature;BMP_pressure;BME280_temperature;BME280_humidity;BME280_pressure;Samples;Min_cycle;Max_cycle;Signal;HPM_P1;HPM_P2
2023/07/19 00:02:19;;;;;;;6.40;4.22;;;25.00;99.90;;;;;;5073085;28;20206;-84
2023/07/19 00:04:47;;;;;;;10.95;6.25;;;25.00;99.90;;;;;;5069817;28;20245;-81
2023/07/19 00:07:14;;;;;;;7.55;5.53;;;24.90;99.90;;;;;;5072920;28;20311;-83
2023/07/19 00:09:41;;;;;;;6.75;5.45;;;24.90;99.90;;;;;;5072852;28;20241;-75
2023/07/19 00:12:10;;;;;;;7.10;5.22;;;24.90;99.90;;;;;;5060864;28;20234;-75
2023/07/19 00:14:37;;;;;;;6.40;4.82;;;24.90;99.90;;;;;;5072286;28;20237;-74
2023/07/19 00:17:04;;;;;;;7.55;5.32;;;24.90;99.90;;;;;;5066193;28;20836;-82
2023/07/19 00:19:31;;;;;;;4.60;4.10;;;24.70;99.90;;;;;;5071686;28;20244;-72
2023/07/19 00:21:58;;;;;;;5.50;5.00;;;24.70;99.90;;;;;;5071713;28;20230;-74
2023/07/19 00:24:25;;;;;;;8.55;4.63;;;24.80;99.90;;;;;;5072639;28;20663;-74
2023/07/19 00:26:52;;;;;;;6.10;4.40;;;24.50;99.90;;;;;;5071620;28;20256;-83
2023/07/19 00:29:20;;;;;;;6.65;5.97;;;24.40;99.90;;;;;;5071732;28;20247;-74
2023/07/19 00:31:47;;;;;;;5.53;4.35;;;24.60;99.90;;;;;;5068983;28;20677;-74
2023/07/19 00:34:14;;;;;;;5.93;4.63;;;24.70;99.90;;;;;;5071814;28;20234;-84
2023/07/19 00:36:40;;;;;;;6.22;5.35;;;24.70;99.90;;;;;;5072055;28;20270;-86
2023/07/19 00:39:07;;;;;;;7.28;5.97;;;24.70;99.90;;;;;;5071614;28;20252;-86
2023/07/19 00:41:34;;;;;;;7.15;5.45;;;24.40;99.90;;;;;;5071915;28;20242;-76
2023/07/19 00:44:03;;;;;;;7.40;4.45;;;24.20;99.90;;;;;;5068788;28;20241;-85
2023/07/19 00:46:31;;;;;;;5.85;5.10;;;24.10;99.90;;;;;;5071836;28;20206;-74
2023/07/19 00:48:59;;;;;;;6.78;4.10;;;24.10;99.90;;;;;;5071258;28;20210;-75
2023/07/19 00:51:26;;;;;;;9.02;5.18;;;24.20;99.90;;;;;;5071771;28;20639;-81
2023/07/19 00:53:54;;;;;;;7.10;4.40;;;24.20;99.90;;;;;;5061251;28;20202;-87
2023/07/19 00:56:21;;;;;;;6.75;5.03;;;24.20;99.90;;;;;;5068385;28;20226;-83
2023/07/19 00:58:50;;;;;;;6.13;4.50;;;24.10;99.90;;;;;;5068993;28;20264;-78
2023/07/19 01:01:17;;;;;;;7.28;4.68;;;24.20;99.90;;;;;;5059574;28;20207;-79
2023/07/19 01:03:46;;;;;;;6.15;4.25;;;24.10;99.90;;;;;;5069735;28;20249;-77
2023/07/19 01:06:13;;;;;;;8.32;4.80;;;24.10;99.90;;;;;;5071155;28;20214;-78
2023/07/19 01:08:41;;;;;;;5.70;4.43;;;24.10;99.90;;;;;;5069634;28;20202;-80
2023/07/19 01:11:08;;;;;;;6.88;5.60;;;24.10;99.90;;;;;;5066569;28;20279;-77
2023/07/19 01:13:34;;;;;;;4.65;3.88;;;24.10;99.90;;;;;;5070689;28;20237;-77
2023/07/19 01:16:02;;;;;;;8.43;4.53;;;24.00;99.90;;;;;;5070627;28;20241;-74
2023/07/19 01:18:28;;;;;;;5.68;5.18;;;24.00;99.90;;;;;;5070989;28;20253;-74
2023/07/19 01:20:57;;;;;;;8.05;4.40;;;23.90;99.90;;;;;;5070841;28;20236;-82
2023/07/19 01:23:25;;;;;;;5.53;4.22;;;23.90;99.90;;;;;;5069514;28;20237;-75
2023/07/19 01:25:53;;;;;;;6.50;4.65;;;23.90;99.90;;;;;;5069384;28;20692;-75
2023/07/19 01:28:20;;;;;;;6.65;4.57;;;23.90;99.90;;;;;;5070604;28;20311;-79
2023/07/19 01:30:47;;;;;;;7.20;4.40;;;23.80;99.90;;;;;;5069758;28;20237;-79
2023/07/19 01:33:14;;;;;;;7.95;5.03;;;23.80;99.90;;;;;;5070791;28;20650;-81
2023/07/19 01:35:41;;;;;;;5.53;3.72;;;23.80;99.90;;;;;;5069613;28;20237;-77
2023/07/19 01:38:07;;;;;;;6.50;4.07;;;23.70;99.90;;;;;;5070184;28;20786;-77
2023/07/19 01:40:36;;;;;;;5.63;4.20;;;23.70;99.90;;;;;;5070758;28;20259;-77
2023/07/19 01:43:03;;;;;;;5.85;4.30;;;23.70;99.90;;;;;;5070193;28;20242;-84
2023/07/19 01:45:30;;;;;;;6.90;4.25;;;23.70;99.90;;;;;;5069474;28;20234;-82
2023/07/19 01:47:56;;;;;;;6.68;4.20;;;23.70;99.90;;;;;;5057663;28;20217;-76
2023/07/19 01:50:23;;;;;;;5.10;3.65;;;23.70;99.90;;;;;;5070315;28;20237;-85
2023/07/19 01:52:50;;;;;;;6.22;5.38;;;23.60;99.90;;;;;;5068503;28;20715;-75
2023/07/19 01:55:17;;;;;;;6.05;4.72;;;23.60;99.90;;;;;;5070298;28;20202;-74
2023/07/19 01:57:45;;;;;;;7.53;4.75;;;23.60;99.90;;;;;;5070053;28;20261;-74
2023/07/19 02:00:13;;;;;;;5.93;4.85;;;23.40;99.90;;;;;;5057190;28;20206;-75
2023/07/19 02:02:40;;;;;;;5.55;5.00;;;23.40;99.90;;;;;;5070173;28;20248;-74
2023/07/19 02:05:08;;;;;;;6.53;3.70;;;23.40;99.90;;;;;;5069983;28;20579;-79
2023/07/19 02:07:35;;;;;;;5.55;3.78;;;23.30;99.90;;;;;;5070497;28;20303;-86
2023/07/19 02:10:02;;;;;;;4.47;4.07;;;23.30;99.90;;;;;;5066097;28;20280;-75
2023/07/19 02:12:29;;;;;;;7.07;3.92;;;23.40;99.90;;;;;;5052133;28;20238;-75
2023/07/19 02:14:57;;;;;;;8.40;4.88;;;23.40;99.90;;;;;;5053748;28;20367;-75
2023/07/19 02:17:24;;;;;;;6.25;4.45;;;23.30;99.90;;;;;;5066418;28;20244;-77
2023/07/19 02:19:51;;;;;;;6.63;4.82;;;23.40;99.90;;;;;;5063655;28;20237;-77
2023/07/19 02:22:18;;;;;;;6.70;4.15;;;23.40;99.90;;;;;;5070367;28;20245;-77
2023/07/19 02:24:45;;;;;;;5.20;4.03;;;23.30;99.90;;;;;;5069936;28;20242;-77
2023/07/19 02:27:12;;;;;;;5.57;4.70;;;23.20;99.90;;;;;;5070530;28;20249;-77
2023/07/19 02:29:39;;;;;;;6.85;4.32;;;23.20;99.90;;;;;;5067998;28;20229;-79
2023/07/19 02:32:08;;;;;;;4.32;3.90;;;23.10;99.90;;;;;;5067404;28;20230;-83
2023/07/19 02:34:35;;;;;;;6.55;3.85;;;23.10;99.90;;;;;;5070178;28;20238;-84
2023/07/19 02:37:02;;;;;;;10.20;4.57;;;23.10;99.90;;;;;;5069748;28;20289;-76
2023/07/19 02:39:30;;;;;;;5.80;4.28;;;23.00;99.90;;;;;;5069693;28;20210;-77
2023/07/19 02:41:57;;;;;;;5.68;3.38;;;23.10;99.90;;;;;;5065727;28;20214;-76
2023/07/19 02:44:24;;;;;;;7.68;4.00;;;23.10;99.90;;;;;;5073505;28;20210;-76
2023/07/19 02:46:51;;;;;;;5.85;4.95;;;23.10;99.90;;;;;;5059838;28;20240;-85
2023/07/19 02:49:20;;;;;;;6.45;3.80;;;23.00;99.90;;;;;;5073934;28;20202;-83
2023/07/19 02:51:47;;;;;;;7.05;4.20;;;23.00;99.90;;;;;;5072843;28;20234;-78
2023/07/19 02:54:14;;;;;;;8.73;4.90;;;23.00;99.90;;;;;;5072949;28;20234;-78
2023/07/19 02:56:40;;;;;;;11.50;4.43;;;23.00;99.90;;;;;;5073518;28;20203;-77
2023/07/19 02:59:07;;;;;;;6.50;4.68;;;23.00;99.90;;;;;;5073538;28;20244;-76
2023/07/19 03:01:36;;;;;;;8.10;4.70;;;22.90;99.90;;;;;;5073385;28;20263;-87
2023/07/19 03:04:06;;;;;;;4.72;3.47;;;23.00;99.90;;;;;;5073374;28;20297;-78
2023/07/19 03:06:34;;;;;;;5.38;3.92;;;22.90;99.90;;;;;;5073249;28;20210;-77
2023/07/19 03:09:02;;;;;;;6.70;3.92;;;22.90;99.90;;;;;;5071722;28;20228;-83
2023/07/19 03:11:29;;;;;;;5.57;3.70;;;22.80;99.90;;;;;;5073054;28;20296;-84
2023/07/19 03:13:56;;;;;;;4.05;3.60;;;22.80;99.90;;;;;;5072946;28;20234;-78
2023/07/19 03:16:22;;;;;;;7.88;4.68;;;22.70;99.90;;;;;;5073298;28;20238;-79
2023/07/19 03:18:49;;;;;;;5.18;3.90;;;22.70;99.90;;;;;;5070165;28;20233;-85
2023/07/19 03:21:16;;;;;;;4.90;4.18;;;22.80;99.90;;;;;;5062275;28;20244;-77
2023/07/19 03:23:44;;;;;;;4.97;3.88;;;22.80;99.90;;;;;;5073011;28;20206;-77
2023/07/19 03:26:11;;;;;;;4.90;4.07;;;22.70;99.90;;;;;;5073486;28;20279;-77
2023/07/19 03:28:38;;;;;;;7.40;3.63;;;22.70;99.90;;;;;;5073546;28;20245;-77
2023/07/19 03:31:11;;;;;;;5.55;4.05;;;22.70;99.90;;;;;;5066193;28;20242;-82
2023/07/19 03:33:38;;;;;;;6.82;4.10;;;22.60;99.90;;;;;;5073435;28;20250;-83
2023/07/19 03:36:06;;;;;;;6.47;5.00;;;22.50;99.90;;;;;;5072777;28;20202;-81
2023/07/19 03:38:33;;;;;;;5.47;4.30;;;22.50;99.90;;;;;;5072833;28;20240;-77
2023/07/19 03:41:06;;;;;;;7.82;4.40;;;22.50;99.90;;;;;;5072260;28;20198;-77
2023/07/19 03:43:33;;;;;;;8.70;5.25;;;22.50;99.90;;;;;;5072072;28;20581;-77
2023/07/19 03:46:00;;;;;;;5.78;4.07;;;22.60;99.90;;;;;;5072085;28;20233;-80
2023/07/19 03:48:27;;;;;;;8.13;4.90;;;22.60;99.90;;;;;;5073024;28;20252;-77
2023/07/19 03:50:58;;;;;;;6.28;4.18;;;22.60;99.90;;;;;;5072509;28;20577;-85
2023/07/19 03:53:25;;;;;;;6.93;4.15;;;22.60;99.90;;;;;;5072623;28;20694;-82
2023/07/19 03:55:56;;;;;;;6.32;4.20;;;22.50;99.90;;;;;;5071525;28;20580;-81
2023/07/19 03:58:25;;;;;;;8.63;4.57;;;22.30;99.90;;;;;;5070773;28;20226;-80
2023/07/19 04:00:53;;;;;;;5.97;4.28;;;22.20;99.90;;;;;;5064846;28;20238;-81
2023/07/19 04:03:20;;;;;;;4.68;3.65;;;22.30;99.90;;;;;;5072296;28;20275;-80
2023/07/19 04:05:47;;;;;;;7.80;4.80;;;22.30;99.90;;;;;;5071794;28;20265;-82
2023/07/19 04:08:15;;;;;;;9.18;4.63;;;22.40;99.90;;;;;;5072304;28;20210;-79
2023/07/19 04:10:43;;;;;;;6.70;5.10;;;22.40;99.90;;;;;;5071338;28;20284;-78
2023/07/19 04:13:11;;;;;;;7.03;4.03;;;22.30;99.90;;;;;;5072067;28;20289;-77
2023/07/19 04:15:39;;;;;;;7.85;4.07;;;22.30;99.90;;;;;;5072685;28;20303;-82
2023/07/19 04:18:06;;;;;;;6.85;4.90;;;22.40;99.90;;;;;;5069562;28;20230;-79
2023/07/19 04:20:36;;;;;;;5.90;4.70;;;22.40;99.90;;;;;;5068575;28;20233;-79
2023/07/19 04:23:03;;;;;;;5.93;4.15;;;22.50;99.90;;;;;;5064143;28;20217;-79
2023/07/19 04:25:31;;;;;;;6.18;4.57;;;22.60;99.90;;;;;;5055704;28;20391;-80
2023/07/19 04:27:58;;;;;;;5.45;4.30;;;22.50;99.90;;;;;;5052588;28;20218;-79
2023/07/19 04:30:25;;;;;;;5.13;4.22;;;22.60;99.90;;;;;;5053557;28;20242;-79
2023/07/19 04:32:55;;;;;;;5.72;4.07;;;22.70;99.90;;;;;;5052591;28;20239;-80
2023/07/19 04:35:22;;;;;;;4.40;3.95;;;22.60;99.90;;;;;;5061279;28;20292;-78
2023/07/19 04:37:49;;;;;;;4.53;4.13;;;22.70;99.90;;;;;;5064037;28;20651;-79
2023/07/19 04:40:17;;;;;;;5.60;3.80;;;22.70;99.90;;;;;;5063477;28;20320;-78
2023/07/19 04:42:44;;;;;;;4.53;3.80;;;22.60;99.90;;;;;;5054577;28;20234;-79
2023/07/19 04:45:13;;;;;;;4.35;3.95;;;22.50;99.90;;;;;;5063169;28;20210;-78
2023/07/19 04:47:40;;;;;;;5.07;4.60;;;22.50;99.90;;;;;;5061059;28;20212;-82
2023/07/19 04:50:10;;;;;;;5.30;4.43;;;22.50;99.90;;;;;;5067026;28;20772;-79
2023/07/19 04:52:37;;;;;;;5.35;4.60;;;22.50;99.90;;;;;;5056518;28;20214;-79
2023/07/19 04:55:06;;;;;;;7.60;4.43;;;22.40;99.90;;;;;;5056797;28;20716;-80
2023/07/19 04:57:33;;;;;;;6.20;4.20;;;22.40;99.90;;;;;;5060489;28;20233;-78
2023/07/19 05:00:00;;;;;;;5.00;3.90;;;22.40;99.90;;;;;;5058268;28;20288;-78
2023/07/19 05:02:28;;;;;;;7.35;4.53;;;22.60;99.90;;;;;;5057867;28;20218;-79
2023/07/19 05:04:55;;;;;;;5.00;3.80;;;22.70;99.90;;;;;;5057216;28;20257;-79
2023/07/19 05:07:24;;;;;;;4.97;3.83;;;22.80;99.90;;;;;;5053338;28;20211;-79
2023/07/19 05:09:50;;;;;;;4.88;3.97;;;22.80;99.90;;;;;;5063191;28;20860;-81
2023/07/19 05:12:17;;;;;;;6.45;4.43;;;22.90;99.90;;;;;;5068556;28;20203;-80
2023/07/19 05:14:44;;;;;;;6.45;4.60;;;22.90;99.90;;;;;;5059700;28;20206;-77
2023/07/19 05:17:11;;;;;;;6.10;4.72;;;22.90;99.90;;;;;;5060228;28;20233;-85
2023/07/19 05:19:39;;;;;;;6.68;4.00;;;23.00;99.90;;;;;;5058579;28;20238;-83
2023/07/19 05:22:06;;;;;;;6.28;3.80;;;22.90;99.90;;;;;;5066540;28;20259;-80
2023/07/19 05:24:34;;;;;;;5.10;4.60;;;22.80;99.90;;;;;;5068591;28;20612;-75
2023/07/19 05:27:02;;;;;;;6.38;4.30;;;22.80;99.90;;;;;;5057760;28;20235;-83
2023/07/19 05:29:29;;;;;;;5.85;4.30;;;22.90;99.90;;;;;;5052494;28;20215;-88
2023/07/19 05:31:56;;;;;;;5.45;4.65;;;22.90;99.90;;;;;;5051005;28;20625;-73
2023/07/19 05:34:23;;;;;;;8.40;4.45;;;22.90;99.90;;;;;;5062556;28;20241;-76
2023/07/19 05:36:51;;;;;;;6.22;3.80;;;22.90;99.90;;;;;;5052166;28;20211;-77
2023/07/19 05:39:18;;;;;;;7.45;4.13;;;23.00;99.90;;;;;;5054315;28;20317;-79
2023/07/19 05:41:46;;;;;;;7.05;4.53;;;23.10;99.90;;;;;;5056927;28;20246;-75
2023/07/19 05:44:13;;;;;;;5.63;3.28;;;23.10;99.90;;;;;;5061773;28;20282;-73
2023/07/19 05:46:40;;;;;;;4.82;3.88;;;23.20;99.90;;;;;;5051929;28;20260;-72
2023/07/19 05:49:06;;;;;;;6.57;4.55;;;23.20;99.90;;;;;;5063522;28;20237;-75
2023/07/19 05:51:33;;;;;;;8.57;4.45;;;23.20;99.90;;;;;;5055199;28;20288;-75
2023/07/19 05:54:00;;;;;;;5.07;4.57;;;23.20;99.90;;;;;;5050185;28;20248;-76
2023/07/19 05:56:27;;;;;;;4.43;3.70;;;23.20;99.90;;;;;;5054897;28;22242;-77
2023/07/19 05:58:56;;;;;;;4.60;4.00;;;23.20;99.90;;;;;;5068743;28;20582;-78
2023/07/19 06:01:24;;;;;;;6.43;4.13;;;23.10;99.90;;;;;;5065864;28;20234;-78
2023/07/19 06:03:51;;;;;;;5.50;5.00;;;23.30;99.90;;;;;;5060035;28;20605;-78
2023/07/19 06:06:18;;;;;;;5.93;4.25;;;23.40;99.90;;;;;;5054424;28;20231;-80
2023/07/19 06:08:45;;;;;;;6.65;4.35;;;23.40;99.90;;;;;;5050269;28;20288;-78
2023/07/19 06:11:12;;;;;;;5.78;3.88;;;23.40;99.90;;;;;;5062585;28;20271;-78
2023/07/19 06:13:39;;;;;;;4.68;4.22;;;23.40;99.90;;;;;;5059883;28;20691;-79
2023/07/19 06:16:07;;;;;;;4.50;4.10;;;23.40;99.90;;;;;;5051743;28;20202;-80
2023/07/19 06:18:34;;;;;;;6.72;3.72;;;23.30;99.90;;;;;;5053862;28;20270;-80
2023/07/19 06:21:01;;;;;;;4.57;3.70;;;23.40;99.90;;;;;;5069988;28;20261;-82
2023/07/19 06:23:28;;;;;;;6.35;4.28;;;23.50;99.90;;;;;;5074458;28;20213;-76
2023/07/19 06:25:55;;;;;;;5.07;4.57;;;23.60;99.90;;;;;;5073490;28;20198;-77
2023/07/19 06:28:22;;;;;;;5.15;3.83;;;23.70;99.90;;;;;;5061676;28;20209;-77
2023/07/19 06:30:49;;;;;;;5.40;4.82;;;23.90;99.90;;;;;;5060577;28;20230;-76
2023/07/19 06:33:17;;;;;;;6.38;4.38;;;24.00;99.90;;;;;;5058836;28;20238;-76
2023/07/19 06:35:44;;;;;;;3.88;3.55;;;23.90;99.90;;;;;;5064700;28;20654;-75
2023/07/19 06:38:11;;;;;;;5.75;3.70;;;23.90;99.90;;;;;;5053001;28;20897;-76
2023/07/19 06:40:38;;;;;;;4.50;3.88;;;24.00;99.90;;;;;;5060951;28;20233;-81
2023/07/19 06:43:06;;;;;;;6.90;4.38;;;23.80;99.90;;;;;;5054863;28;20242;-77
2023/07/19 06:45:33;;;;;;;4.18;3.78;;;23.70;99.90;;;;;;5056057;28;20211;-79
2023/07/19 06:48:00;;;;;;;8.25;3.47;;;23.60;99.90;;;;;;5061701;28;20233;-76
2023/07/19 06:50:28;;;;;;;5.03;4.13;;;23.50;99.90;;;;;;5053306;28;20202;-76
2023/07/19 06:52:55;;;;;;;5.82;4.35;;;23.60;99.90;;;;;;5053206;28;20558;-76
2023/07/19 06:55:23;;;;;;;5.53;4.28;;;23.70;99.90;;;;;;5053326;28;20231;-81
2023/07/19 06:57:50;;;;;;;6.30;4.05;;;23.90;99.90;;;;;;5053720;28;20211;-80
2023/07/19 07:00:17;;;;;;;4.60;3.97;;;24.20;99.90;;;;;;5066059;28;20244;-83
2023/07/19 07:02:45;;;;;;;5.45;3.88;;;24.40;99.90;;;;;;5069436;28;20242;-77
2023/07/19 07:05:12;;;;;;;4.38;3.97;;;24.50;99.90;;;;;;5058970;28;20203;-84
2023/07/19 07:07:40;;;;;;;4.88;4.10;;;24.50;99.90;;;;;;5060224;28;20299;-78
2023/07/19 07:10:09;;;;;;;5.40;4.15;;;24.30;99.90;;;;;;5055886;28;20209;-77
2023/07/19 07:12:36;;;;;;;4.93;4.47;;;24.10;99.90;;;;;;5056955;28;20207;-80
2023/07/19 07:15:03;;;;;;;4.13;3.55;;;24.20;99.90;;;;;;5067540;28;20272;-81
2023/07/19 07:17:30;;;;;;;5.18;4.57;;;24.10;99.90;;;;;;5063561;28;20307;-81
2023/07/19 07:19:57;;;;;;;4.57;4.18;;;24.30;99.90;;;;;;5063907;28;20269;-82
2023/07/19 07:22:24;;;;;;;6.18;3.50;;;24.60;99.90;;;;;;5068752;28;20226;-78
2023/07/19 07:24:52;;;;;;;4.82;3.60;;;24.60;99.90;;;;;;5055989;28;20242;-83
2023/07/19 07:27:19;;;;;;;8.10;5.22;;;24.80;99.90;;;;;;5062493;28;20252;-86
2023/07/19 07:29:46;;;;;;;6.35;4.40;;;25.00;99.90;;;;;;5057676;28;20238;-83
2023/07/19 07:32:13;;;;;;;8.30;3.47;;;25.00;99.90;;;;;;5061420;28;20245;-81
2023/07/19 07:34:40;;;;;;;4.35;3.72;;;25.20;99.90;;;;;;5055489;28;20254;-81
2023/07/19 07:37:07;;;;;;;5.50;3.95;;;25.20;99.90;;;;;;5065436;28;20693;-82
2023/07/19 07:39:35;;;;;;;10.65;4.32;;;25.00;99.90;;;;;;5055928;28;20292;-85
2023/07/19 07:42:04;;;;;;;4.38;3.90;;;25.00;99.90;;;;;;5061205;28;20202;-82
2023/07/19 07:44:31;;;;;;;6.13;4.35;;;25.30;99.90;;;;;;5053893;28;20252;-88
2023/07/19 07:46:58;;;;;;;5.03;3.72;;;25.40;99.90;;;;;;5057991;28;20238;-80
2023/07/19 07:49:25;;;;;;;4.90;3.42;;;25.40;99.90;;;;;;5068091;28;20245;-77
2023/07/19 07:51:52;;;;;;;3.90;3.40;;;25.60;99.90;;;;;;5072487;28;20216;-82
2023/07/19 07:54:20;;;;;;;4.07;3.67;;;25.70;99.90;;;;;;5073018;28;20206;-85
2023/07/19 07:56:47;;;;;;;5.05;3.92;;;25.50;99.90;;;;;;5072234;28;20259;-82
2023/07/19 07:59:17;;;;;;;5.57;3.70;;;25.20;99.90;;;;;;5072297;28;20230;-77
2023/07/19 08:01:44;;;;;;;4.55;4.07;;;25.10;99.90;;;;;;5059453;28;20241;-75
2023/07/19 08:04:12;;;;;;;5.63;3.90;;;25.30;99.90;;;;;;5065202;28;20245;-80
2023/07/19 08:06:39;;;;;;;8.40;4.60;;;24.90;99.90;;;;;;5067137;28;20209;-80
2023/07/19 08:09:06;;;;;;;5.05;3.65;;;24.60;99.90;;;;;;5072011;28;20238;-79
2023/07/19 08:11:33;;;;;;;4.60;4.13;;;24.50;99.90;;;;;;5072319;28;20214;-81
2023/07/19 08:14:00;;;;;;;5.35;4.28;;;24.40;99.90;;;;;;5071157;28;20632;-76
2023/07/19 08:16:29;;;;;;;4.88;3.83;;;24.40;99.90;;;;;;5071242;28;20289;-80
2023/07/19 08:18:56;;;;;;;4.20;3.80;;;24.50;99.90;;;;;;5068224;28;20219;-81
2023/07/19 08:21:23;;;;;;;5.63;4.13;;;24.90;99.90;;;;;;5061821;28;20233;-79
2023/07/19 08:23:53;;;;;;;4.75;4.30;;;25.00;99.90;;;;;;5069999;28;20209;-81
2023/07/19 08:26:20;;;;;;;3.97;3.50;;;25.00;99.90;;;;;;5070459;28;20712;-80
2023/07/19 08:28:47;;;;;;;8.25;3.97;;;25.20;99.90;;;;;;5069947;28;20252;-75
2023/07/19 08:31:14;;;;;;;5.50;3.45;;;25.30;99.90;;;;;;5070702;28;20808;-80
2023/07/19 08:33:43;;;;;;;5.53;3.72;;;25.60;99.90;;;;;;5071083;28;20272;-81
2023/07/19 08:36:10;;;;;;;7.05;4.20;;;25.80;99.90;;;;;;5071681;28;20241;-82
2023/07/19 08:38:36;;;;;;;5.45;3.88;;;25.90;99.90;;;;;;5071568;28;20245;-82
2023/07/19 08:41:05;;;;;;;4.70;4.05;;;25.80;99.90;;;;;;5071248;28;20245;-78
2023/07/19 08:43:33;;;;;;;4.30;3.90;;;25.90;99.90;;;;;;5071384;28;20577;-82
2023/07/19 08:46:00;;;;;;;8.27;3.55;;;26.00;99.90;;;;;;5071040;28;20248;-81
2023/07/19 08:48:28;;;;;;;5.45;4.45;;;26.20;99.90;;;;;;5071640;28;20242;-81
2023/07/19 08:50:57;;;;;;;8.70;4.00;;;26.20;99.90;;;;;;5071127;28;20230;-80
2023/07/19 08:53:26;;;;;;;7.70;4.68;;;26.20;99.90;;;;;;5071685;28;20241;-84
2023/07/19 08:55:53;;;;;;;7.00;3.72;;;26.40;99.90;;;;;;5071235;28;20234;-84
2023/07/19 08:58:20;;;;;;;5.13;4.53;;;26.80;99.90;;;;;;5071202;28;20241;-81
2023/07/19 09:00:48;;;;;;;5.05;4.55;;;27.20;99.90;;;;;;5067660;28;20269;-83
2023/07/19 09:03:15;;;;;;;4.30;3.90;;;27.20;99.90;;;;;;5068376;28;20202;-83
2023/07/19 09:05:44;;;;;;;5.25;4.75;;;27.20;99.90;;;;;;5071225;28;20264;-75
2023/07/19 09:08:13;;;;;;;5.65;4.18;;;27.90;99.90;;;;;;5054697;28;20257;-81
2023/07/19 09:10:43;;;;;;;4.85;4.45;;;28.40;99.90;;;;;;5057748;28;20242;-83
2023/07/19 09:13:10;;;;;;;6.40;4.43;;;28.60;99.90;;;;;;5058777;28;20233;-82
2023/07/19 09:15:37;;;;;;;4.80;4.22;;;28.60;99.90;;;;;;5061782;28;20252;-82
2023/07/19 09:18:06;;;;;;;4.75;4.35;;;28.80;99.90;;;;;;5062220;28;20238;-82
2023/07/19 09:20:35;;;;;;;4.65;4.18;;;28.90;99.90;;;;;;5055359;28;20302;-74
2023/07/19 09:23:05;;;;;;;4.63;4.05;;;29.30;99.90;;;;;;5061598;28;20548;-83
2023/07/19 09:25:34;;;;;;;5.03;4.32;;;29.50;99.90;;;;;;5052757;28;20238;-82
2023/07/19 09:28:08;;;;;;;6.20;4.38;;;29.40;99.90;;;;;;5050745;28;20203;-82
2023/07/19 09:30:35;;;;;;;5.00;4.53;;;29.40;99.90;;;;;;5050872;28;20248;-77
2023/07/19 09:33:02;;;;;;;6.38;4.72;;;29.50;99.90;;;;;;5050539;28;20257;-82
2023/07/19 09:35:30;;;;;;;5.00;3.78;;;29.80;99.90;;;;;;5051185;28;20234;-84
2023/07/19 09:37:58;;;;;;;4.53;4.13;;;29.50;99.90;;;;;;5050423;28;20203;-83
2023/07/19 09:40:26;;;;;;;6.25;4.35;;;29.20;99.90;;;;;;5060644;28;20233;-82
2023/07/19 09:42:55;;;;;;;5.18;4.70;;;28.80;99.90;;;;;;5067075;28;20686;-84
2023/07/19 09:45:26;;;;;;;5.25;4.55;;;28.30;99.90;;;;;;5059605;28;20234;-82
2023/07/19 09:47:55;;;;;;;4.50;4.10;;;27.80;99.90;;;;;;5050098;28;20203;-78
2023/07/19 09:50:23;;;;;;;7.22;4.18;;;27.50;99.90;;;;;;5052116;28;20241;-81
2023/07/19 09:52:52;;;;;;;8.18;5.95;;;27.40;99.90;;;;;;5049027;28;20250;-80
2023/07/19 09:55:20;;;;;;;6.93;4.20;;;27.30;99.90;;;;;;5049132;28;20674;-81
2023/07/19 09:57:49;;;;;;;4.45;3.85;;;27.00;99.90;;;;;;5049401;28;20225;-81
2023/07/19 10:00:18;;;;;;;7.03;4.43;;;26.80;99.90;;;;;;5050650;28;20231;-80
2023/07/19 10:02:45;;;;;;;4.78;4.32;;;26.70;99.90;;;;;;5050183;28;20234;-79
2023/07/19 10:05:12;;;;;;;6.55;4.80;;;26.60;99.90;;;;;;5050685;28;20205;-82
2023/07/19 10:07:42;;;;;;;5.53;4.53;;;26.60;99.90;;;;;;5050885;28;20207;-79
2023/07/19 10:10:14;;;;;;;7.35;4.53;;;26.70;99.90;;;;;;5049406;28;20211;-82
2023/07/19 10:12:46;;;;;;;6.43;4.00;;;26.90;99.90;;;;;;5050773;28;20247;-78
2023/07/19 10:15:16;;;;;;;6.05;4.28;;;27.00;99.90;;;;;;5050312;28;20235;-82
2023/07/19 10:17:55;;;;;;;4.82;4.13;;;28.00;99.90;;;;;;5050292;28;20696;-79
2023/07/19 10:20:25;;;;;;;5.93;3.92;;;27.90;99.90;;;;;;5049768;28;20642;-80
2023/07/19 10:22:57;;;;;;;4.95;4.22;;;28.60;99.90;;;;;;5049481;28;20256;-81
2023/07/19 10:25:27;;;;;;;7.00;4.18;;;29.70;99.90;;;;;;5050097;28;20253;-81
2023/07/19 10:28:05;;;;;;;5.85;3.83;;;32.40;99.90;;;;;;5049721;28;20215;-81
2023/07/19 10:30:55;;;;;;;5.40;4.28;;;35.90;99.90;;;;;;5049965;28;20207;-81
2023/07/19 10:33:25;;;;;;;4.13;3.75;;;36.60;99.90;;;;;;5050189;28;20215;-82
2023/07/19 10:35:53;;;;;;;5.13;3.47;;;33.90;99.90;;;;;;5057770;28;20253;-82
2023/07/19 10:38:22;;;;;;;9.48;3.90;;;32.30;99.90;;;;;;5057214;28;20237;-75
2023/07/19 10:40:56;;;;;;;5.60;3.65;;;31.10;99.90;;;;;;5069680;28;20325;-75
2023/07/19 10:43:23;;;;;;;5.40;4.15;;;30.20;99.90;;;;;;5070130;28;20202;-81
2023/07/19 10:45:51;;;;;;;4.82;4.18;;;29.60;99.90;;;;;;5069963;28;20213;-78
2023/07/19 10:48:18;;;;;;;4.63;3.40;;;29.20;99.90;;;;;;5069985;28;20234;-76
2023/07/19 10:50:48;;;;;;;5.30;4.68;;;29.10;99.90;;;;;;5069797;28;20265;-80
2023/07/19 10:53:15;;;;;;;4.18;3.75;;;29.20;99.90;;;;;;5069730;28;20210;-82
2023/07/19 10:55:45;;;;;;;4.55;3.88;;;29.00;99.90;;;;;;5056438;28;20209;-78
2023/07/19 10:58:12;;;;;;;5.45;3.78;;;28.70;99.90;;;;;;5070072;28;20233;-82
2023/07/19 11:00:43;;;;;;;3.65;3.28;;;28.20;99.90;;;;;;5055971;28;20262;-83
2023/07/19 11:03:13;;;;;;;5.82;3.90;;;28.30;99.90;;;;;;5050548;28;20206;-81
2023/07/19 11:05:41;;;;;;;5.05;3.75;;;28.60;99.90;;;;;;5053635;28;20237;-84
2023/07/19 11:08:09;;;;;;;6.20;4.32;;;28.90;99.90;;;;;;5053616;28;20202;-81
2023/07/19 11:10:36;;;;;;;3.83;3.42;;;28.80;99.90;;;;;;5065276;28;20230;-80
2023/07/19 11:13:04;;;;;;;7.78;4.13;;;28.80;99.90;;;;;;5053034;28;20250;-83
2023/07/19 11:15:31;;;;;;;7.25;3.80;;;28.80;99.90;;;;;;5053493;28;20242;-81
2023/07/19 11:17:58;;;;;;;4.30;3.70;;;28.90;99.90;;;;;;5053065;28;20199;-82
2023/07/19 11:20:31;;;;;;;4.68;3.72;;;29.00;99.90;;;;;;5054672;28;20269;-82
2023/07/19 11:23:07;;;;;;;4.57;3.90;;;28.90;99.90;;;;;;5073095;28;20202;-79
2023/07/19 11:25:38;;;;;;;4.78;4.20;;;29.00;99.90;;;;;;5073313;28;20206;-84
2023/07/19 11:28:05;;;;;;;4.13;3.58;;;29.00;99.90;;;;;;5073089;28;20210;-82
2023/07/19 11:30:39;;;;;;;6.22;3.60;;;29.10;99.90;;;;;;5072377;28;20253;-82
2023/07/19 11:33:06;;;;;;;5.97;4.20;;;29.00;99.90;;;;;;5072791;28;20704;-84
2023/07/19 11:35:33;;;;;;;4.10;3.60;;;29.10;99.90;;;;;;5073127;28;20238;-80
2023/07/19 11:38:01;;;;;;;4.32;3.92;;;29.30;99.90;;;;;;5072882;28;20206;-81
2023/07/19 11:40:28;;;;;;;6.70;4.15;;;29.30;99.90;;;;;;5072515;28;20326;-81
2023/07/19 11:42:57;;;;;;;4.13;3.55;;;29.40;99.90;;;;;;5061155;28;20237;-86
2023/07/19 11:45:26;;;;;;;5.65;3.83;;;29.80;99.90;;;;;;5072886;28;20674;-81
2023/07/19 11:47:59;;;;;;;8.30;3.65;;;29.70;99.90;;;;;;5072840;28;20209;-82
2023/07/19 11:50:26;;;;;;;5.47;3.35;;;29.70;99.90;;;;;;5072761;28;20656;-82
2023/07/19 11:52:56;;;;;;;4.53;3.47;;;29.60;99.90;;;;;;5072435;28;20677;-81
2023/07/19 11:55:23;;;;;;;5.38;3.80;;;29.20;99.90;;;;;;5072819;28;20244;-81
2023/07/19 11:57:52;;;;;;;4.85;3.72;;;29.20;99.90;;;;;;5071935;28;20271;-81
2023/07/19 12:00:22;;;;;;;4.82;3.83;;;29.40;99.90;;;;;;5073095;28;20273;-83
2023/07/19 12:02:50;;;;;;;5.60;3.58;;;29.20;99.90;;;;;;5072146;28;20248;-78
2023/07/19 12:05:20;;;;;;;4.25;3.85;;;29.30;99.90;;;;;;5072657;28;20230;-82
2023/07/19 12:07:49;;;;;;;7.15;3.53;;;29.20;99.90;;;;;;5071929;28;20260;-81
2023/07/19 12:10:16;;;;;;;7.25;3.58;;;29.10;99.90;;;;;;5072433;28;20205;-83
2023/07/19 12:12:46;;;;;;;5.40;3.42;;;28.80;99.90;;;;;;5072141;28;20615;-79
2023/07/19 12:15:14;;;;;;;6.32;3.00;;;28.90;99.90;;;;;;5071890;28;20198;-85
2023/07/19 12:17:42;;;;;;;2.97;2.67;;;29.10;99.90;;;;;;5072976;28;20202;-83
2023/07/19 12:20:10;;;;;;;4.05;3.33;;;29.40;99.90;;;;;;5058602;28;20258;-82
2023/07/19 12:22:39;;;;;;;3.63;3.00;;;29.80;99.90;;;;;;5072294;28;20233;-84
2023/07/19 12:25:07;;;;;;;4.15;3.45;;;30.00;99.90;;;;;;5071878;28;20206;-81
2023/07/19 12:27:34;;;;;;;4.00;3.45;;;29.90;99.90;;;;;;5072176;28;20238;-79
2023/07/19 12:30:02;;;;;;;3.60;2.83;;;29.50;99.90;;;;;;5071902;28;20297;-82
2023/07/19 12:32:29;;;;;;;4.38;3.10;;;29.70;99.90;;;;;;5071804;28;20248;-81
2023/07/19 12:34:57;;;;;;;5.22;3.28;;;29.60;99.90;;;;;;5071535;28;20210;-81
2023/07/19 12:37:24;;;;;;;5.18;3.40;;;29.80;99.90;;;;;;5071614;28;20210;-81
2023/07/19 12:39:53;;;;;;;4.90;3.42;;;29.70;99.90;;;;;;5071750;28;20585;-81
2023/07/19 12:42:20;;;;;;;4.43;3.85;;;29.50;99.90;;;;;;5071995;28;20241;-81
2023/07/19 12:44:47;;;;;;;4.57;3.63;;;29.00;99.90;;;;;;5071415;28;20248;-81
2023/07/19 12:47:15;;;;;;;6.30;2.85;;;29.30;99.90;;;;;;5071731;28;20754;-84
2023/07/19 12:49:42;;;;;;;3.80;2.85;;;29.60;99.90;;;;;;5071509;28;20202;-74